sensor_id;sensor_type;location;lat;lon;timestamp;pressure;altitude;pressure_sealevel;temperature;humidity
37634;BME280;32048;49.902;22.508;2023-09-19T00:00:23;98352.13;;;17.37;100.00
37634;BME280;32048;49.902;22.508;2023-09-19T00:03:13;98348.31;;;17.30;100.00
37634;BME280;32048;49.902;22.508;2023-09-19T00:05:40;98350.81;;;17.22;100.00
37634;BME280;32048;49.902;22.508;2023-09-19T00:08:12;98350.59;;;17.14;100.00
37634;BME280;32048;49.902;22.508;2023-09-19T00:10:43;98351.25;;;17.06;100.00
37634;BME280;32048;49.902;22.508;2023-09-19T00:13:11;98354.56;;;16.98;100.00
37634;BME280;32048;49.902;22.508;2023-09-19T00:15:47;98346.25;;;16.92;100.00
37634;BME280;32048;49.902;22.508;2023-09-19T00:18:19;98346.53;;;16.89;100.00
37634;BME280;32048;49.902;22.508;2023-09-19T00:20:48;98348.00;;;16.81;100.00
37634;BME280;32048;49.902;22.508;2023-09-19T00:23:17;98344.63;;;16.79;100.00
37634;BME280;32048;49.902;22.508;2023-09-19T00:25:44;98339.78;;;16.73;100.00
37634;BME280;32048;49.902;22.508;2023-09-19T00:28:12;98340.88;;;16.71;100.00
37634;BME280;32048;49.902;22.508;2023-09-19T00:30:42;98335.66;;;16.69;100.00
37634;BME280;32048;49.902;22.508;2023-09-19T00:33:11;98339.19;;;16.70;100.00
37634;BME280;32048;49.902;22.508;2023-09-19T00:35:53;98335.66;;;16.69;100.00
37634;BME280;32048;49.902;22.508;2023-09-19T00:38:21;98330.59;;;16.66;100.00
37634;BME280;32048;49.902;22.508;2023-09-19T00:40:51;98327.94;;;16.66;100.00
37634;BME280;32048;49.902;22.508;2023-09-19T00:43:21;98319.94;;;16.66;100.00
37634;BME280;32048;49.902;22.508;2023-09-19T00:45:52;98322.47;;;16.68;100.00
37634;BME280;32048;49.902;22.508;2023-09-19T00:48:22;98318.84;;;16.69;100.00
37634;BME280;32048;49.902;22.508;2023-09-19T00:50:50;98316.16;;;16.69;100.00
37634;BME280;32048;49.902;22.508;2023-09-19T00:53:20;98319.56;;;16.71;100.00
37634;BME280;32048;49.902;22.508;2023-09-19T00:55:48;98314.56;;;16.77;100.00
37634;BME280;32048;49.902;22.508;2023-09-19T00:58:17;98322.56;;;16.77;100.00
37634;BME280;32048;49.902;22.508;2023-09-19T01:00:47;98309.97;;;16.79;100.00
37634;BME280;32048;49.902;22.508;2023-09-19T01:03:15;98307.31;;;16.79;100.00
37634;BME280;32048;49.902;22.508;2023-09-19T01:05:42;98305.47;;;16.80;100.00
37634;BME280;32048;49.902;22.508;2023-09-19T01:08:10;98300.97;;;16.80;100.00
37634;BME280;32048;49.902;22.508;2023-09-19T01:10:46;98305.47;;;16.80;100.00
37634;BME280;32048;49.902;22.508;2023-09-19T01:24:22;98287.22;;;16.64;100.00
37634;BME280;32048;49.902;22.508;2023-09-19T01:30:13;98275.25;;;16.58;100.00
37634;BME280;32048;49.902;22.508;2023-09-19T01:32:41;98272.59;;;16.58;100.00
37634;BME280;32048;49.902;22.508;2023-09-19T01:35:10;98267.25;;;16.58;100.00
37634;BME280;32048;49.902;22.508;2023-09-19T01:37:40;98265.31;;;16.60;100.00
37634;BME280;32048;49.902;22.508;2023-09-19T01:40:13;98262.63;;;16.60;100.00
37634;BME280;32048;49.902;22.508;2023-09-19T01:48:35;98256.06;;;16.65;100.00
37634;BME280;32048;49.902;22.508;2023-09-19T01:51:09;98256.78;;;16.67;100.00
37634;BME280;32048;49.902;22.508;2023-09-19T01:53:51;98256.69;;;16.68;100.00
37634;BME280;32048;49.902;22.508;2023-09-19T01:56:36;98256.41;;;16.71;100.00
37634;BME280;32048;49.902;22.508;2023-09-19T01:59:13;98258.06;;;16.72;100.00
37634;BME280;32048;49.902;22.508;2023-09-19T02:01:42;98256.28;;;16.73;100.00
37634;BME280;32048;49.902;22.508;2023-09-19T02:04:11;98262.44;;;16.73;100.00
37634;BME280;32048;49.902;22.508;2023-09-19T02:06:42;98247.28;;;16.74;100.00
37634;BME280;32048;49.902;22.508;2023-09-19T02:09:09;98246.47;;;16.73;100.00
37634;BME280;32048;49.902;22.508;2023-09-19T02:11:36;98259.06;;;16.71;100.00
37634;BME280;32048;49.902;22.508;2023-09-19T02:14:03;98254.13;;;16.67;100.00
37634;BME280;32048;49.902;22.508;2023-09-19T02:16:35;98255.25;;;16.64;100.00
37634;BME280;32048;49.902;22.508;2023-09-19T02:19:02;98253.53;;;16.63;100.00
37634;BME280;32048;49.902;22.508;2023-09-19T02:21:33;98255.34;;;16.62;100.00
37634;BME280;32048;49.902;22.508;2023-09-19T02:24:00;98253.41;;;16.65;100.00
37634;BME280;32048;49.902;22.508;2023-09-19T02:26:27;98246.25;;;16.65;100.00
37634;BME280;32048;49.902;22.508;2023-09-19T02:28:54;98240.09;;;16.65;100.00
37634;BME280;32048;49.902;22.508;2023-09-19T02:31:21;98246.38;;;16.63;100.00
37634;BME280;32048;49.902;22.508;2023-09-19T02:33:48;98227.72;;;16.63;100.00
37634;BME280;32048;49.902;22.508;2023-09-19T02:36:15;98240.91;;;16.65;100.00
37634;BME280;32048;49.902;22.508;2023-09-19T02:38:44;98223.25;;;16.64;100.00
37634;BME280;32048;49.902;22.508;2023-09-19T02:41:11;98224.94;;;16.65;100.00
37634;BME280;32048;49.902;22.508;2023-09-19T02:43:38;98223.81;;;16.68;100.00
37634;BME280;32048;49.902;22.508;2023-09-19T02:46:06;98217.38;;;16.70;100.00
37634;BME280;32048;49.902;22.508;2023-09-19T02:48:33;98210.09;;;16.72;100.00
37634;BME280;32048;49.902;22.508;2023-09-19T02:51:02;98210.25;;;16.71;100.00
37634;BME280;32048;49.902;22.508;2023-09-19T02:53:30;98213.81;;;16.81;100.00
37634;BME280;32048;49.902;22.508;2023-09-19T02:55:59;98208.09;;;16.86;100.00
37634;BME280;32048;49.902;22.508;2023-09-19T02:58:25;98205.03;;;16.90;100.00
37634;BME280;32048;49.902;22.508;2023-09-19T03:00:55;98208.72;;;16.99;100.00
37634;BME280;32048;49.902;22.508;2023-09-19T03:03:22;98211.56;;;17.07;100.00
37634;BME280;32048;49.902;22.508;2023-09-19T03:05:50;98208.22;;;17.15;100.00
37634;BME280;32048;49.902;22.508;2023-09-19T03:08:20;98209.63;;;17.19;100.00
37634;BME280;32048;49.902;22.508;2023-09-19T03:10:49;98208.69;;;17.20;100.00
37634;BME280;32048;49.902;22.508;2023-09-19T03:13:16;98201.63;;;17.19;100.00
37634;BME280;32048;49.902;22.508;2023-09-19T03:15:43;98203.47;;;17.18;100.00
37634;BME280;32048;49.902;22.508;2023-09-19T03:18:13;98196.00;;;17.12;100.00
37634;BME280;32048;49.902;22.508;2023-09-19T03:20:40;98193.63;;;17.19;100.00
37634;BME280;32048;49.902;22.508;2023-09-19T03:23:07;98189.44;;;17.26;100.00
37634;BME280;32048;49.902;22.508;2023-09-19T03:25:35;98191.44;;;17.34;100.00
37634;BME280;32048;49.902;22.508;2023-09-19T03:47:47;98172.66;;;18.42;96.19
37634;BME280;32048;49.902;22.508;2023-09-19T03:50:15;98171.00;;;18.41;96.24
37634;BME280;32048;49.902;22.508;2023-09-19T03:52:44;98178.19;;;18.41;96.17
37634;BME280;32048;49.902;22.508;2023-09-19T03:55:12;98175.50;;;18.41;95.82
37634;BME280;32048;49.902;22.508;2023-09-19T03:57:39;98172.81;;;18.41;96.22
37634;BME280;32048;49.902;22.508;2023-09-19T04:00:06;98174.81;;;18.39;96.74
37634;BME280;32048;49.902;22.508;2023-09-19T04:02:39;98169.72;;;18.36;96.63
37634;BME280;32048;49.902;22.508;2023-09-19T04:05:07;98166.50;;;18.32;96.51
37634;BME280;32048;49.902;22.508;2023-09-19T04:07:34;98168.47;;;18.30;96.47
37634;BME280;32048;49.902;22.508;2023-09-19T04:10:02;98160.28;;;18.32;96.75
37634;BME280;32048;49.902;22.508;2023-09-19T04:12:30;98167.47;;;18.31;96.62
37634;BME280;32048;49.902;22.508;2023-09-19T04:14:57;98156.94;;;18.30;97.14
37634;BME280;32048;49.902;22.508;2023-09-19T04:17:24;98155.13;;;18.30;97.30
37634;BME280;32048;49.902;22.508;2023-09-19T04:19:51;98164.97;;;18.30;98.01
37634;BME280;32048;49.902;22.508;2023-09-19T04:22:18;98167.78;;;18.28;98.09
37634;BME280;32048;49.902;22.508;2023-09-19T04:24:46;98171.41;;;18.27;98.35
37634;BME280;32048;49.902;22.508;2023-09-19T04:27:12;98159.19;;;18.24;99.32
37634;BME280;32048;49.902;22.508;2023-09-19T04:29:42;98158.78;;;18.19;99.86
37634;BME280;32048;49.902;22.508;2023-09-19T04:32:09;98159.06;;;18.16;99.65
37634;BME280;32048;49.902;22.508;2023-09-19T04:34:36;98161.03;;;18.14;100.00
37634;BME280;32048;49.902;22.508;2023-09-19T04:37:05;98165.81;;;18.11;100.00
37634;BME280;32048;49.902;22.508;2023-09-19T04:39:32;98167.25;;;18.05;100.00
37634;BME280;32048;49.902;22.508;2023-09-19T04:42:01;98159.91;;;17.97;100.00
37634;BME280;32048;49.902;22.508;2023-09-19T04:44:28;98169.19;;;17.93;100.00
37634;BME280;32048;49.902;22.508;2023-09-19T04:46:55;98159.94;;;17.88;100.00
37634;BME280;32048;49.902;22.508;2023-09-19T04:49:23;98161.19;;;17.83;100.00
37634;BME280;32048;49.902;22.508;2023-09-19T04:51:50;98161.72;;;17.77;100.00
37634;BME280;32048;49.902;22.508;2023-09-19T04:54:17;98154.41;;;17.70;100.00
37634;BME280;32048;49.902;22.508;2023-09-19T04:56:45;98154.38;;;17.60;100.00
37634;BME280;32048;49.902;22.508;2023-09-19T04:59:12;98160.56;;;17.51;100.00
37634;BME280;32048;49.902;22.508;2023-09-19T05:01:39;98156.63;;;17.45;100.00
37634;BME280;32048;49.902;22.508;2023-09-19T05:04:06;98155.22;;;17.41;100.00
37634;BME280;32048;49.902;22.508;2023-09-19T05:06:33;98153.09;;;17.35;100.00
37634;BME280;32048;49.902;22.508;2023-09-19T05:09:01;98156.03;;;17.32;100.00
37634;BME280;32048;49.902;22.508;2023-09-19T05:11:31;98154.50;;;17.29;100.00
37634;BME280;32048;49.902;22.508;2023-09-19T05:27:10;98147.25;;;17.60;100.00
37634;BME280;32048;49.902;22.508;2023-09-19T05:29:37;98143.69;;;17.50;100.00
37634;BME280;32048;49.902;22.508;2023-09-19T05:32:04;98139.31;;;17.39;100.00
37634;BME280;32048;49.902;22.508;2023-09-19T05:34:32;98138.19;;;17.32;100.00
37634;BME280;32048;49.902;22.508;2023-09-19T05:36:59;98131.44;;;17.28;100.00
37634;BME280;32048;49.902;22.508;2023-09-19T05:39:27;98135.09;;;17.27;100.00
37634;BME280;32048;49.902;22.508;2023-09-19T05:41:54;98136.06;;;17.26;100.00
37634;BME280;32048;49.902;22.508;2023-09-19T05:44:22;98132.44;;;17.27;100.00
37634;BME280;32048;49.902;22.508;2023-09-19T05:46:48;98125.38;;;17.26;100.00
37634;BME280;32048;49.902;22.508;2023-09-19T05:49:17;98128.78;;;17.28;100.00
37634;BME280;32048;49.902;22.508;2023-09-19T05:51:44;98135.09;;;17.27;100.00
37634;BME280;32048;49.902;22.508;2023-09-19T05:54:12;98135.09;;;17.27;100.00
37634;BME280;32048;49.902;22.508;2023-09-19T05:56:39;98133.28;;;17.28;100.00
37634;BME280;32048;49.902;22.508;2023-09-19T05:59:08;98136.94;;;17.27;100.00
37634;BME280;32048;49.902;22.508;2023-09-19T06:01:35;98135.34;;;17.24;100.00
37634;BME280;32048;49.902;22.508;2023-09-19T06:04:03;98130.19;;;17.22;100.00
37634;BME280;32048;49.902;22.508;2023-09-19T06:06:31;98129.34;;;17.22;100.00
37634;BME280;32048;49.902;22.508;2023-09-19T06:09:00;98137.72;;;17.17;100.00
37634;BME280;32048;49.902;22.508;2023-09-19T06:11:27;98133.69;;;17.23;100.00
37634;BME280;32048;49.902;22.508;2023-09-19T06:13:56;98136.78;;;17.28;100.00
37634;BME280;32048;49.902;22.508;2023-09-19T06:16:23;98137.78;;;17.37;100.00
37634;BME280;32048;49.902;22.508;2023-09-19T06:18:50;98144.25;;;17.44;100.00
37634;BME280;32048;49.902;22.508;2023-09-19T06:21:19;98134.72;;;17.51;100.00
37634;BME280;32048;49.902;22.508;2023-09-19T06:23:46;98129.69;;;17.58;100.00
37634;BME280;32048;49.902;22.508;2023-09-19T06:26:13;98125.59;;;17.63;100.00
37634;BME280;32048;49.902;22.508;2023-09-19T06:28:41;98126.00;;;17.69;100.00
37634;BME280;32048;49.902;22.508;2023-09-19T06:31:09;98128.13;;;17.75;100.00
37634;BME280;32048;49.902;22.508;2023-09-19T06:33:37;98128.44;;;17.81;100.00
37634;BME280;32048;49.902;22.508;2023-09-19T06:36:06;98122.66;;;17.76;100.00
37634;BME280;32048;49.902;22.508;2023-09-19T06:38:34;98128.44;;;17.81;100.00
37634;BME280;32048;49.902;22.508;2023-09-19T06:41:03;98129.13;;;17.83;100.00
37634;BME280;32048;49.902;22.508;2023-09-19T06:43:35;98125.63;;;17.83;100.00
37634;BME280;32048;49.902;22.508;2023-09-19T06:46:02;98127.69;;;17.79;100.00
37634;BME280;32048;49.902;22.508;2023-09-19T06:48:30;98124.06;;;17.80;100.00
37634;BME280;32048;49.902;22.508;2023-09-19T06:50:59;98129.66;;;17.77;100.00
37634;BME280;32048;49.902;22.508;2023-09-19T06:53:32;98124.31;;;17.77;100.00
37634;BME280;32048;49.902;22.508;2023-09-19T06:56:02;98122.13;;;17.82;100.00
37634;BME280;32048;49.902;22.508;2023-09-19T06:58:29;98122.53;;;17.88;100.00
37634;BME280;32048;49.902;22.508;2023-09-19T07:00:56;98128.69;;;17.98;100.00
37634;BME280;32048;49.902;22.508;2023-09-19T07:03:24;98130.38;;;18.08;100.00
37634;BME280;32048;49.902;22.508;2023-09-19T07:05:53;98135.56;;;18.20;100.00
37634;BME280;32048;49.902;22.508;2023-09-19T07:08:23;98137.81;;;18.34;100.00
37634;BME280;32048;49.902;22.508;2023-09-19T07:10:50;98135.81;;;18.46;100.00
37634;BME280;32048;49.902;22.508;2023-09-19T07:13:19;98136.72;;;18.64;100.00
37634;BME280;32048;49.902;22.508;2023-09-19T07:15:46;98137.28;;;18.78;100.00
37634;BME280;32048;49.902;22.508;2023-09-19T07:18:14;98139.19;;;18.85;100.00
37634;BME280;32048;49.902;22.508;2023-09-19T07:20:44;98138.34;;;18.95;100.00
37634;BME280;32048;49.902;22.508;2023-09-19T07:23:18;98137.72;;;19.01;100.00
37634;BME280;32048;49.902;22.508;2023-09-19T07:25:45;98152.19;;;19.08;100.00
37634;BME280;32048;49.902;22.508;2023-09-19T07:28:13;98145.81;;;19.19;100.00
37634;BME280;32048;49.902;22.508;2023-09-19T07:30:40;98163.06;;;19.34;100.00
37634;BME280;32048;49.902;22.508;2023-09-19T07:33:08;98154.13;;;19.43;100.00
37634;BME280;32048;49.902;22.508;2023-09-19T07:35:38;98152.81;;;19.47;100.00
37634;BME280;32048;49.902;22.508;2023-09-19T07:38:09;98160.16;;;19.45;100.00
37634;BME280;32048;49.902;22.508;2023-09-19T07:40:38;98154.56;;;19.39;100.00
37634;BME280;32048;49.902;22.508;2023-09-19T07:43:06;98155.03;;;19.34;100.00
37634;BME280;32048;49.902;22.508;2023-09-19T07:45:34;98156.03;;;19.33;100.00
37634;BME280;32048;49.902;22.508;2023-09-19T07:48:01;98153.19;;;19.35;100.00
37634;BME280;32048;49.902;22.508;2023-09-19T07:50:33;98154.06;;;19.35;100.00
37634;BME280;32048;49.902;22.508;2023-09-19T07:53:00;98154.00;;;19.17;100.00
37634;BME280;32048;49.902;22.508;2023-09-19T07:55:27;98151.34;;;19.17;100.00
37634;BME280;32048;49.902;22.508;2023-09-19T07:57:54;98157.13;;;19.13;100.00
37634;BME280;32048;49.902;22.508;2023-09-19T08:00:21;98150.66;;;19.05;100.00
37634;BME280;32048;49.902;22.508;2023-09-19T08:02:49;98151.66;;;19.04;100.00
37634;BME280;32048;49.902;22.508;2023-09-19T08:05:27;98145.47;;;19.04;100.00
37634;BME280;32048;49.902;22.508;2023-09-19T08:20:51;98137.88;;;19.72;100.00
37634;BME280;32048;49.902;22.508;2023-09-19T08:23:19;98143.44;;;19.61;100.00
37634;BME280;32048;49.902;22.508;2023-09-19T08:25:47;98139.69;;;19.54;100.00
37634;BME280;32048;49.902;22.508;2023-09-19T08:28:15;98140.28;;;19.48;100.00
37634;BME280;32048;49.902;22.508;2023-09-19T08:30:46;98127.91;;;19.47;100.00
37634;BME280;32048;49.902;22.508;2023-09-19T08:33:13;98137.53;;;19.40;100.00
37634;BME280;32048;49.902;22.508;2023-09-19T08:35:42;98139.97;;;19.33;100.00
37634;BME280;32048;49.902;22.508;2023-09-19T08:38:09;98133.38;;;19.27;100.00
37634;BME280;32048;49.902;22.508;2023-09-19T08:40:38;98133.44;;;19.18;100.00
37634;BME280;32048;49.902;22.508;2023-09-19T08:43:07;98137.53;;;19.12;100.00
37634;BME280;32048;49.902;22.508;2023-09-19T08:45:35;98137.84;;;19.09;100.00
37634;BME280;32048;49.902;22.508;2023-09-19T08:50:39;98143.78;;;19.03;100.00
37634;BME280;32048;49.902;22.508;2023-09-19T08:53:18;98138.34;;;18.95;100.00
37634;BME280;32048;49.902;22.508;2023-09-19T08:55:48;98144.09;;;18.90;100.00
37634;BME280;32048;49.902;22.508;2023-09-19T08:58:18;98141.75;;;18.87;100.00
37634;BME280;32048;49.902;22.508;2023-09-19T09:00:52;98148.78;;;18.88;100.00
37634;BME280;32048;49.902;22.508;2023-09-19T09:03:21;98149.91;;;18.85;100.00
37634;BME280;32048;49.902;22.508;2023-09-19T09:05:50;98138.66;;;18.82;100.00
37634;BME280;32048;49.902;22.508;2023-09-19T09:08:19;98147.53;;;18.82;100.00
37634;BME280;32048;49.902;22.508;2023-09-19T09:10:49;98156.56;;;18.81;100.00
37634;BME280;32048;49.902;22.508;2023-09-19T09:13:17;98149.38;;;18.82;100.00
37634;BME280;32048;49.902;22.508;2023-09-19T09:15:44;98149.25;;;18.83;100.00
37634;BME280;32048;49.902;22.508;2023-09-19T09:18:12;98140.06;;;18.86;100.00
37634;BME280;32048;49.902;22.508;2023-09-19T09:20:40;98138.09;;;18.88;100.00
37634;BME280;32048;49.902;22.508;2023-09-19T09:23:08;98147.22;;;18.95;100.00
37634;BME280;32048;49.902;22.508;2023-09-19T09:25:54;98145.06;;;18.99;100.00
37634;BME280;32048;49.902;22.508;2023-09-19T09:28:24;98146.63;;;19.01;100.00
37634;BME280;32048;49.902;22.508;2023-09-19T09:30:51;98150.56;;;18.97;100.00
37634;BME280;32048;49.902;22.508;2023-09-19T09:33:18;98143.09;;;19.01;100.00
37634;BME280;32048;49.902;22.508;2023-09-19T09:35:53;98141.53;;;18.98;100.00
37634;BME280;32048;49.902;22.508;2023-09-19T09:38:25;98143.09;;;19.01;100.00
37634;BME280;32048;49.902;22.508;2023-09-19T09:40:56;98143.94;;;19.01;100.00
37634;BME280;32048;49.902;22.508;2023-09-19T09:43:35;98146.19;;;18.96;100.00
37634;BME280;32048;49.902;22.508;2023-09-19T09:46:19;98148.63;;;18.89;100.00
37634;BME280;32048;49.902;22.508;2023-09-19T09:48:58;98149.06;;;18.85;100.00
37634;BME280;32048;49.902;22.508;2023-09-19T09:51:42;98151.22;;;18.81;100.00
37634;BME280;32048;49.902;22.508;2023-09-19T09:54:16;98144.72;;;18.74;100.00
37634;BME280;32048;49.902;22.508;2023-09-19T09:56:58;98152.34;;;18.69;100.00
37634;BME280;32048;49.902;22.508;2023-09-19T10:02:42;98144.75;;;18.64;100.00
37634;BME280;32048;49.902;22.508;2023-09-19T10:05:13;98148.13;;;18.66;100.00
37634;BME280;32048;49.902;22.508;2023-09-19T10:07:40;98144.31;;;18.69;100.00
37634;BME280;32048;49.902;22.508;2023-09-19T10:10:11;98129.78;;;18.72;100.00
37634;BME280;32048;49.902;22.508;2023-09-19T10:12:48;98138.25;;;18.77;100.00
37634;BME280;32048;49.902;22.508;2023-09-19T10:15:18;98140.78;;;18.78;100.00
37634;BME280;32048;49.902;22.508;2023-09-19T10:17:47;98128.81;;;18.82;100.00
37634;BME280;32048;49.902;22.508;2023-09-19T10:20:17;98121.47;;;18.84;100.00
37634;BME280;32048;49.902;22.508;2023-09-19T10:23:00;98128.50;;;18.85;100.00
37634;BME280;32048;49.902;22.508;2023-09-19T10:25:29;98129.38;;;18.86;100.00
37634;BME280;32048;49.902;22.508;2023-09-19T10:28:00;98128.22;;;18.88;100.00
37634;BME280;32048;49.902;22.508;2023-09-19T10:30:31;98136.38;;;18.87;100.00
37634;BME280;32048;49.902;22.508;2023-09-19T10:33:02;98129.91;;;18.89;100.00
37634;BME280;32048;49.902;22.508;2023-09-19T10:35:32;98127.09;;;18.91;100.00
37634;BME280;32048;49.902;22.508;2023-09-19T10:38:00;98128.38;;;18.87;100.00
37634;BME280;32048;49.902;22.508;2023-09-19T10:40:27;98130.06;;;18.88;100.00
37634;BME280;32048;49.902;22.508;2023-09-19T10:43:05;98126.69;;;18.86;100.00
37634;BME280;32048;49.902;22.508;2023-09-19T10:45:34;98118.66;;;18.86;100.00
37634;BME280;32048;49.902;22.508;2023-09-19T10:48:02;98123.31;;;18.84;100.00
37634;BME280;32048;49.902;22.508;2023-09-19T10:50:44;98125.44;;;18.80;100.00
37634;BME280;32048;49.902;22.508;2023-09-19T10:53:13;98122.47;;;18.74;100.00
37634;BME280;32048;49.902;22.508;2023-09-19T10:55:50;98111.69;;;18.65;100.00
37634;BME280;32048;49.902;22.508;2023-09-19T10:58:26;98123.78;;;18.60;100.00
37634;BME280;32048;49.902;22.508;2023-09-19T11:00:57;98115.66;;;18.52;100.00
37634;BME280;32048;49.902;22.508;2023-09-19T11:03:39;98118.75;;;18.47;100.00
37634;BME280;32048;49.902;22.508;2023-09-19T11:06:19;98121.03;;;18.42;100.00
37634;BME280;32048;49.902;22.508;2023-09-19T11:09:16;98119.53;;;18.30;100.00
37634;BME280;32048;49.902;22.508;2023-09-19T11:11:50;98120.50;;;18.28;100.00
37634;BME280;32048;49.902;22.508;2023-09-19T11:30:40;98131.06;;;17.52;100.00
37634;BME280;32048;49.902;22.508;2023-09-19T11:33:33;98124.44;;;17.37;100.00
37634;BME280;32048;49.902;22.508;2023-09-19T11:36:11;98123.44;;;17.28;100.00
37634;BME280;32048;49.902;22.508;2023-09-19T11:43:52;98117.63;;;17.03;100.00
37634;BME280;32048;49.902;22.508;2023-09-19T11:46:24;98129.28;;;17.02;100.00
37634;BME280;32048;49.902;22.508;2023-09-19T11:48:52;98126.03;;;16.99;100.00
37634;BME280;32048;49.902;22.508;2023-09-19T11:51:23;98130.66;;;16.97;100.00
37634;BME280;32048;49.902;22.508;2023-09-19T11:53:56;98133.47;;;16.95;100.00
37634;BME280;32048;49.902;22.508;2023-09-19T11:56:24;98130.81;;;16.95;100.00
37634;BME280;32048;49.902;22.508;2023-09-19T11:58:55;98133.72;;;16.92;100.00
37634;BME280;32048;49.902;22.508;2023-09-19T12:03:54;98140.31;;;16.88;100.00
37634;BME280;32048;49.902;22.508;2023-09-19T12:06:25;98137.63;;;16.88;100.00
37634;BME280;32048;49.902;22.508;2023-09-19T12:08:53;98140.47;;;16.87;100.00
37634;BME280;32048;49.902;22.508;2023-09-19T12:11:22;98138.75;;;16.86;100.00
37634;BME280;32048;49.902;22.508;2023-09-19T12:13:50;98145.31;;;16.81;100.00
37634;BME280;32048;49.902;22.508;2023-09-19T12:16:19;98141.69;;;16.82;100.00
37634;BME280;32048;49.902;22.508;2023-09-19T12:18:50;98147.63;;;16.86;100.00
37634;BME280;32048;49.902;22.508;2023-09-19T12:21:28;98135.13;;;16.87;100.00
37634;BME280;32048;49.902;22.508;2023-09-19T12:24:14;98136.69;;;16.89;100.00
37634;BME280;32048;49.902;22.508;2023-09-19T12:26:44;98130.81;;;16.95;100.00
37634;BME280;32048;49.902;22.508;2023-09-19T12:29:19;98136.44;;;17.02;100.00
37634;BME280;32048;49.902;22.508;2023-09-19T12:31:57;98133.38;;;17.07;100.00
37634;BME280;32048;49.902;22.508;2023-09-19T12:34:32;98131.84;;;17.14;100.00
37634;BME280;32048;49.902;22.508;2023-09-19T12:37:14;98137.72;;;17.17;100.00
37634;BME280;32048;49.902;22.508;2023-09-19T12:39:50;98141.81;;;17.21;100.00
37634;BME280;32048;49.902;22.508;2023-09-19T12:42:25;98141.56;;;17.24;100.00
37634;BME280;32048;49.902;22.508;2023-09-19T12:44:59;98139.16;;;17.21;100.00
37634;BME280;32048;49.902;22.508;2023-09-19T12:47:28;98148.84;;;17.22;100.00
37634;BME280;32048;49.902;22.508;2023-09-19T12:50:15;98135.75;;;17.19;100.00
37634;BME280;32048;49.902;22.508;2023-09-19T12:52:49;98149.38;;;17.16;100.00
37634;BME280;32048;49.902;22.508;2023-09-19T12:55:20;98138.00;;;17.14;100.00
37634;BME280;32048;49.902;22.508;2023-09-19T12:58:11;98135.63;;;17.11;100.00
37634;BME280;32048;49.902;22.508;2023-09-19T13:00:41;98143.47;;;17.13;100.00
37634;BME280;32048;49.902;22.508;2023-09-19T13:03:18;98140.97;;;17.11;100.00
37634;BME280;32048;49.902;22.508;2023-09-19T13:08:27;98146.13;;;17.03;100.00
37634;BME280;32048;49.902;22.508;2023-09-19T13:11:10;98141.31;;;16.97;100.00
37634;BME280;32048;49.902;22.508;2023-09-19T13:13:44;98146.66;;;16.97;100.00
37634;BME280;32048;49.902;22.508;2023-09-19T13:16:16;98150.31;;;16.96;100.00
37634;BME280;32048;49.902;22.508;2023-09-19T13:18:53;98140.34;;;16.98;100.00
37634;BME280;32048;49.902;22.508;2023-09-19T13:21:32;98148.47;;;16.96;100.00
37634;BME280;32048;49.902;22.508;2023-09-19T13:24:23;98154.53;;;16.98;100.00
37634;BME280;32048;49.902;22.508;2023-09-19T13:26:53;98156.59;;;16.95;100.00
37634;BME280;32048;49.902;22.508;2023-09-19T13:29:20;98154.22;;;16.92;100.00
37634;BME280;32048;49.902;22.508;2023-09-19T13:31:48;98155.06;;;16.92;100.00
37634;BME280;32048;49.902;22.508;2023-09-19T13:34:16;98157.31;;;16.97;100.00
37634;BME280;32048;49.902;22.508;2023-09-19T13:36:45;98164.47;;;16.96;100.00
37634;BME280;32048;49.902;22.508;2023-09-19T13:39:15;98161.53;;;16.99;100.00
37634;BME280;32048;49.902;22.508;2023-09-19T13:41:49;98162.66;;;16.97;100.00
37634;BME280;32048;49.902;22.508;2023-09-19T13:44:16;98172.38;;;16.98;100.00
37634;BME280;32048;49.902;22.508;2023-09-19T13:46:44;98166.88;;;16.99;100.00
37634;BME280;32048;49.902;22.508;2023-09-19T13:49:13;98164.22;;;16.99;100.00
37634;BME280;32048;49.902;22.508;2023-09-19T13:51:40;98161.28;;;17.02;100.00
37634;BME280;32048;49.902;22.508;2023-09-19T13:54:11;98162.72;;;17.07;100.00
37634;BME280;32048;49.902;22.508;2023-09-19T13:56:41;98167.63;;;17.11;100.00
37634;BME280;32048;49.902;22.508;2023-09-19T13:59:08;98167.22;;;17.16;100.00
37634;BME280;32048;49.902;22.508;2023-09-19T14:01:35;98169.75;;;17.17;100.00
37634;BME280;32048;49.902;22.508;2023-09-19T14:04:02;98167.22;;;17.16;100.00
37634;BME280;32048;49.902;22.508;2023-09-19T14:06:29;98163.56;;;17.17;100.00
37634;BME280;32048;49.902;22.508;2023-09-19T14:08:56;98168.06;;;17.16;100.00
37634;BME280;32048;49.902;22.508;2023-09-19T14:11:23;98186.22;;;17.22;100.00
37634;BME280;32048;49.902;22.508;2023-09-19T14:13:50;98181.72;;;17.23;100.00
37634;BME280;32048;49.902;22.508;2023-09-19T14:16:21;98189.13;;;17.19;100.00
37634;BME280;32048;49.902;22.508;2023-09-19T14:18:51;98182.25;;;17.17;100.00
37634;BME280;32048;49.902;22.508;2023-09-19T14:21:19;98186.75;;;17.16;100.00
37634;BME280;32048;49.902;22.508;2023-09-19T14:23:46;98196.41;;;17.17;100.00
37634;BME280;32048;49.902;22.508;2023-09-19T14:26:13;98189.81;;;17.12;100.00
37634;BME280;32048;49.902;22.508;2023-09-19T14:28:40;98195.56;;;17.07;100.00
37634;BME280;32048;49.902;22.508;2023-09-19T14:31:09;98198.75;;;17.01;100.00
37634;BME280;32048;49.902;22.508;2023-09-19T14:33:37;98204.22;;;16.99;100.00